Appleton, Illinois
Current Conditions -  °F | °C
As of 12:15 PM on Thursday 27 Nov 2014 (Local Time) from KGBG Reporting Station
Scattered Clouds Scattered Clouds  
Wind Chill: -14°   Ceiling: Unl
Heat Index: -6°   Visibility: 10mi
Dew Point: -9°   Wind: 15mph
Humidity: 81%   Direction: 280°W
Pressure: 30.43"   Gusts: NA
Location:  40.9602°N, 90.1517°W
Report Text: KGBG 271815Z AUTO 28013KT 10SM SCT013 M06/M09 A3043 RMK AO2 T10611089
Loading
Personal Weather Stations






























Interactive Weather Map New forecast layout! Learn more

10-Day Weather Forecast

Advertisements
Track Severe Weather on mobile